Time;durP1;ratioP1;P1;durP2;ratioP2;P2;SDS_P1;SDS_P2;PMS_P1;PMS_P2;Temp;Humidity;BMP_temperature;BMP_pressure;BME280_temperature;BME280_humidity;BME280_pressure;Samples;Min_cycle;Max_cycle;Signal;HPM_P1;HPM_P2
2022/08/06 00:00:06;;;;;;;5.00;1.33;;;15.30;71.10;;;;;;5011050;28;20474;-86
2022/08/06 00:02:39;;;;;;;6.10;0.90;;;15.20;70.80;;;;;;5010130;28;20050;-86
2022/08/06 00:05:09;;;;;;;5.80;1.10;;;15.20;70.90;;;;;;4978882;28;20069;-83
2022/08/06 00:07:45;;;;;;;3.08;1.00;;;15.20;70.90;;;;;;5010456;28;20073;-85
2022/08/06 00:10:17;;;;;;;3.67;0.85;;;15.20;71.10;;;;;;4978397;28;20061;-84
2022/08/06 00:12:45;;;;;;;5.05;1.00;;;15.10;71.10;;;;;;4994442;28;20466;-84
2022/08/06 00:15:19;;;;;;;2.78;0.90;;;15.10;71.20;;;;;;4977630;28;20043;-84
2022/08/06 00:18:07;;;;;;;5.35;0.80;;;15.10;71.70;;;;;;4991921;28;20054;-83
2022/08/06 00:20:38;;;;;;;2.53;1.00;;;15.70;71.90;;;;;;4994244;28;20042;-85
2022/08/06 00:23:10;;;;;;;6.07;1.00;;;15.20;71.30;;;;;;4993184;28;20355;-84
2022/08/06 00:25:46;;;;;;;2.97;0.80;;;15.20;71.50;;;;;;4994651;28;20053;-85
2022/08/06 00:28:24;;;;;;;8.35;1.25;;;15.10;71.80;;;;;;4993632;28;20110;-85
2022/08/06 00:31:03;;;;;;;3.35;1.00;;;14.50;71.50;;;;;;4994277;28;20046;-84
2022/08/06 00:33:39;;;;;;;5.18;0.80;;;15.10;72.50;;;;;;5010471;28;20061;-83
2022/08/06 00:36:30;;;;;;;5.78;1.10;;;15.10;72.30;;;;;;5015456;28;20469;-85
2022/08/06 00:39:06;;;;;;;5.18;1.13;;;15.10;72.50;;;;;;5051183;28;20049;-86
2022/08/06 00:41:38;;;;;;;4.20;1.10;;;15.10;72.60;;;;;;5001417;28;20123;-85
2022/08/06 00:44:14;;;;;;;4.85;1.27;;;14.90;73.00;;;;;;5018732;28;20076;-85
2022/08/06 00:46:57;;;;;;;6.70;1.00;;;14.50;72.90;;;;;;5034714;28;20064;-83
2022/08/06 00:49:28;;;;;;;3.65;1.10;;;14.90;73.30;;;;;;5017524;28;20056;-83
2022/08/06 00:52:17;;;;;;;3.85;1.17;;;14.70;73.70;;;;;;5035203;28;20056;-86
2022/08/06 00:54:46;;;;;;;5.75;1.30;;;14.70;74.50;;;;;;5033246;28;20046;-85
2022/08/06 00:57:16;;;;;;;6.80;1.60;;;14.60;74.60;;;;;;5034131;28;20046;-84
2022/08/06 00:59:49;;;;;;;5.05;1.52;;;14.70;74.30;;;;;;5034105;28;20053;-82
2022/08/06 01:02:19;;;;;;;3.35;1.40;;;14.60;75.00;;;;;;5034022;28;20045;-85
2022/08/06 01:04:53;;;;;;;7.03;1.60;;;14.60;75.10;;;;;;5018417;28;20057;-82
2022/08/06 01:07:33;;;;;;;6.70;2.03;;;14.60;75.50;;;;;;5033187;28;20472;-84
2022/08/06 01:10:25;;;;;;;3.80;1.88;;;14.40;75.20;;;;;;5033939;28;20050;-83
2022/08/06 01:12:59;;;;;;;9.25;2.28;;;13.70;75.60;;;;;;5034083;28;20050;-83
2022/08/06 01:15:56;;;;;;;7.75;2.80;;;14.30;76.00;;;;;;5033894;28;20038;-85
2022/08/06 01:18:55;;;;;;;8.43;2.85;;;14.20;76.20;;;;;;5034620;28;20050;-84
2022/08/06 01:22:04;;;;;;;6.07;2.92;;;14.30;75.70;;;;;;5033752;28;20053;-83
2022/08/06 01:25:04;;;;;;;5.60;3.08;;;14.20;76.20;;;;;;5034642;28;20044;-83
2022/08/06 01:27:50;;;;;;;6.18;3.30;;;14.30;76.10;;;;;;5033206;28;20064;-82
2022/08/06 01:30:21;;;;;;;7.38;3.88;;;14.20;75.80;;;;;;5034976;28;20050;-84
2022/08/06 01:33:06;;;;;;;6.60;3.78;;;14.20;75.90;;;;;;5049526;28;20041;-83
2022/08/06 01:35:47;;;;;;;8.18;4.18;;;14.20;76.20;;;;;;5033607;28;20034;-84
2022/08/06 01:38:45;;;;;;;6.85;3.90;;;13.50;75.70;;;;;;5033518;28;20380;-85
2022/08/06 01:41:40;;;;;;;6.07;3.65;;;14.10;76.60;;;;;;5018373;28;20045;-82
2022/08/06 01:44:34;;;;;;;6.22;3.55;;;14.10;76.40;;;;;;5019736;28;20060;-83
2022/08/06 01:47:11;;;;;;;10.38;4.00;;;14.10;76.40;;;;;;5034704;28;20050;-84
2022/08/06 01:49:51;;;;;;;12.57;3.83;;;14.00;76.90;;;;;;5032483;28;20049;-82
2022/08/06 01:52:37;;;;;;;;;;;14.00;76.70;;;;;;5034772;28;20056;-83
2022/08/06 01:55:20;;;;;;;7.90;3.60;;;12.80;76.80;;;;;;5033986;28;19921;-86
2022/08/06 01:57:55;;;;;;;9.55;4.47;;;12.30;76.10;;;;;;5017920;28;20534;-83
2022/08/06 02:00:47;;;;;;;6.70;3.80;;;13.80;77.10;;;;;;5038148;28;20041;-82
2022/08/06 02:03:47;;;;;;;8.48;4.10;;;13.70;77.20;;;;;;5036224;28;20072;-82
2022/08/06 02:06:33;;;;;;;10.07;4.15;;;13.60;77.50;;;;;;5020442;28;20053;-84
2022/08/06 02:09:07;;;;;;;11.35;4.05;;;13.20;77.60;;;;;;5036065;28;20053;-84
2022/08/06 02:12:01;;;;;;;9.52;4.00;;;13.50;78.00;;;;;;5037317;28;20064;-84
2022/08/06 02:14:45;;;;;;;11.77;4.28;;;13.50;78.30;;;;;;5035459;28;20053;-84
2022/08/06 02:17:17;;;;;;;10.18;4.10;;;13.50;79.10;;;;;;5037941;28;20042;-82
2022/08/06 02:20:11;;;;;;;6.90;4.13;;;13.40;78.70;;;;;;5037804;28;20468;-84
2022/08/06 02:23:01;;;;;;;6.85;4.07;;;13.30;78.80;;;;;;5036202;28;20052;-83
2022/08/06 02:25:31;;;;;;;8.35;3.90;;;11.80;78.30;;;;;;5037030;28;20061;-84
2022/08/06 02:28:06;;;;;;;9.27;4.82;;;13.20;79.20;;;;;;5035948;28;20389;-82
2022/08/06 02:30:43;;;;;;;9.98;4.45;;;13.10;79.50;;;;;;5036483;28;20067;-83
2022/08/06 02:33:16;;;;;;;10.52;4.85;;;13.10;80.00;;;;;;5036834;28;20045;-83
2022/08/06 02:35:52;;;;;;;7.13;4.78;;;13.00;80.00;;;;;;5035593;28;20065;-85
2022/08/06 02:38:35;;;;;;;10.23;4.57;;;13.00;80.50;;;;;;5037398;28;20045;-85
2022/08/06 02:41:30;;;;;;;7.35;4.47;;;12.80;80.70;;;;;;5035954;28;20072;-85
2022/08/06 02:44:46;;;;;;;11.27;5.25;;;12.80;81.20;;;;;;5037557;28;20041;-85
2022/08/06 02:47:30;;;;;;;11.57;4.40;;;12.90;81.50;;;;;;5022067;28;20064;-83
2022/08/06 02:50:24;;;;;;;10.02;5.38;;;12.50;80.80;;;;;;5037189;28;20053;-85
2022/08/06 02:53:10;;;;;;;10.40;5.13;;;12.80;81.10;;;;;;5037016;28;20044;-84
2022/08/06 02:56:11;;;;;;;10.47;4.70;;;12.50;81.70;;;;;;5035946;28;20041;-83
2022/08/06 02:58:43;;;;;;;11.93;5.25;;;12.70;81.80;;;;;;5019288;28;20184;-83
2022/08/06 03:01:41;;;;;;;11.15;5.22;;;12.60;81.80;;;;;;5035152;28;20042;-85
2022/08/06 03:04:16;;;;;;;14.48;5.80;;;12.60;82.60;;;;;;5020077;28;20041;-82
2022/08/06 03:06:47;;;;;;;8.95;5.60;;;12.60;82.20;;;;;;5019890;28;20396;-85
2022/08/06 03:09:18;;;;;;;10.15;5.55;;;12.50;82.40;;;;;;5034063;28;20046;-82
2022/08/06 03:11:49;;;;;;;10.68;5.70;;;12.50;82.50;;;;;;5035429;28;20049;-85
2022/08/06 03:14:22;;;;;;;12.02;6.03;;;12.50;82.70;;;;;;5051272;28;20056;-85
2022/08/06 03:17:12;;;;;;;11.57;5.45;;;12.40;82.90;;;;;;5036366;28;20050;-84
2022/08/06 03:19:43;;;;;;;8.32;5.45;;;12.40;83.30;;;;;;5035640;28;20066;-84
2022/08/06 03:22:30;;;;;;;10.68;5.80;;;12.30;83.40;;;;;;5035630;28;20049;-83
2022/08/06 03:25:12;;;;;;;10.27;5.72;;;12.20;83.70;;;;;;5019140;28;20072;-84
2022/08/06 03:27:43;;;;;;;10.15;5.30;;;12.10;84.00;;;;;;5034955;28;20045;-86
2022/08/06 03:30:17;;;;;;;12.60;5.25;;;12.00;84.40;;;;;;5018939;28;20041;-85
2022/08/06 03:33:03;;;;;;;9.15;5.63;;;12.00;84.30;;;;;;5036322;28;20045;-84
2022/08/06 03:35:54;;;;;;;12.38;5.63;;;12.00;84.50;;;;;;5020982;28;20053;-85
2022/08/06 03:38:24;;;;;;;10.57;5.35;;;12.00;84.50;;;;;;5035496;28;20060;-84
2022/08/06 03:40:59;;;;;;;10.10;5.25;;;12.00;84.90;;;;;;5035207;28;20407;-84
2022/08/06 03:43:29;;;;;;;11.13;5.45;;;11.90;85.10;;;;;;5035155;28;20052;-84
2022/08/06 03:46:21;;;;;;;13.20;5.50;;;12.00;85.20;;;;;;5035193;28;20057;-85
2022/08/06 03:48:52;;;;;;;10.75;5.88;;;11.90;85.20;;;;;;5035252;28;20045;-83
2022/08/06 03:51:23;;;;;;;10.68;6.03;;;11.90;85.50;;;;;;5035104;28;20384;-83
2022/08/06 03:54:13;;;;;;;11.35;6.13;;;11.80;85.80;;;;;;5035375;28;20065;-83
2022/08/06 03:56:48;;;;;;;13.45;6.05;;;11.80;85.90;;;;;;5036239;28;20037;-82
2022/08/06 03:59:21;;;;;;;11.70;6.22;;;11.80;85.90;;;;;;5020835;28;20377;-83
2022/08/06 04:01:49;;;;;;;8.73;5.68;;;11.70;86.20;;;;;;4998037;28;20049;-83
2022/08/06 04:04:20;;;;;;;9.43;6.00;;;11.70;86.60;;;;;;4982534;28;20049;-83
2022/08/06 04:06:56;;;;;;;10.88;6.63;;;11.70;86.70;;;;;;5000079;28;20054;-82
2022/08/06 04:09:25;;;;;;;10.98;5.70;;;11.70;86.70;;;;;;4997572;28;20076;-83
2022/08/06 04:12:14;;;;;;;10.35;6.30;;;11.70;86.60;;;;;;4998701;28;20056;-84
2022/08/06 04:15:05;;;;;;;10.48;5.93;;;11.60;86.80;;;;;;4998058;28;20046;-83
2022/08/06 04:17:37;;;;;;;10.55;6.50;;;11.60;87.00;;;;;;4999202;28;20038;-85
2022/08/06 04:20:17;;;;;;;11.07;6.28;;;11.60;87.20;;;;;;4998634;28;20385;-83
2022/08/06 04:23:06;;;;;;;11.57;6.65;;;11.60;87.60;;;;;;4983523;28;20046;-85
2022/08/06 04:25:41;;;;;;;13.73;6.90;;;11.50;87.60;;;;;;4998251;28;20058;-85
2022/08/06 04:28:13;;;;;;;16.45;7.25;;;10.10;86.90;;;;;;5014945;28;20049;-84
2022/08/06 04:30:45;;;;;;;11.68;6.70;;;11.50;87.90;;;;;;5015521;28;20050;-83
2022/08/06 04:33:21;;;;;;;11.18;6.97;;;11.30;88.40;;;;;;5015367;28;20037;-84
2022/08/06 04:36:07;;;;;;;12.85;7.63;;;11.40;88.40;;;;;;4981354;28;20376;-83
2022/08/06 04:38:51;;;;;;;16.98;8.10;;;11.40;88.60;;;;;;5015561;28;20049;-83
2022/08/06 04:41:20;;;;;;;13.52;7.72;;;11.30;88.60;;;;;;4997222;28;20050;-82
2022/08/06 04:43:48;;;;;;;15.48;8.60;;;11.30;88.80;;;;;;5015458;28;20053;-84
2022/08/06 04:46:25;;;;;;;12.07;8.07;;;11.30;89.10;;;;;;4998688;28;20045;-83
2022/08/06 04:48:55;;;;;;;15.05;7.53;;;11.30;89.50;;;;;;4997289;28;20057;-83
2022/08/06 04:51:27;;;;;;;15.38;7.90;;;11.10;89.30;;;;;;4998194;28;20113;-83
2022/08/06 04:54:17;;;;;;;14.60;8.48;;;11.10;90.30;;;;;;5014967;28;20038;-84
2022/08/06 04:56:54;;;;;;;13.60;8.45;;;11.00;90.10;;;;;;5014988;28;20042;-84
2022/08/06 04:59:25;;;;;;;14.35;8.45;;;12.20;90.40;;;;;;5025079;28;20042;-83
2022/08/06 05:02:41;;;;;;;;;;;;;;;;;;;;;
2022/08/06 05:06:31;;;;;;;;;;;;;;;;;;;;;
2022/08/06 05:19:07;;;;;;;;;;;;;;;;;;;;;
2022/08/06 05:22:59;;;;;;;15.02;9.70;;;11.10;90.60;;;;;;4974579;28;20041;-82
2022/08/06 05:27:37;;;;;;;;;;;;;;;;;;;;;
2022/08/06 05:36:09;;;;;;;;;;;;;;;;;;;;;
2022/08/06 05:40:34;;;;;;;;;;;;;;;;;;;;;
2022/08/06 05:44:54;;;;;;;;;;;;;;;;;;;;;
2022/08/06 05:48:57;;;;;;;16.65;10.52;;;11.20;91.10;;;;;;4891749;29;20411;-84
2022/08/06 05:53:07;;;;;;;18.38;11.23;;;11.30;90.90;;;;;;4860619;29;20070;-84
2022/08/06 05:57:42;;;;;;;;;;;;;;;;;;;;;
2022/08/06 06:01:26;;;;;;;22.75;11.82;;;13.10;91.60;;;;;;4856628;29;20057;-83
2022/08/06 06:04:17;;;;;;;18.90;12.30;;;11.60;90.60;;;;;;4863285;29;20421;-85
2022/08/06 06:08:02;;;;;;;;;;;;;;;;;;;;;
2022/08/06 06:11:39;;;;;;;23.20;12.40;;;11.90;91.10;;;;;;5006910;28;20058;-84
2022/08/06 06:15:13;;;;;;;18.60;11.75;;;12.00;90.60;;;;;;5020562;28;20041;-84
2022/08/06 06:22:06;;;;;;;;;;;;;;;;;;;;;
2022/08/06 06:25:53;;;;;;;;;;;;;;;;;;;;;
2022/08/06 06:28:58;;;;;;;20.15;11.45;;;12.30;90.00;;;;;;5036503;28;20049;-79
2022/08/06 06:31:44;;;;;;;19.75;11.70;;;12.50;90.10;;;;;;5037517;28;20048;-83
2022/08/06 06:35:02;;;;;;;20.85;11.57;;;12.60;90.10;;;;;;5036867;28;20045;-82
2022/08/06 06:38:00;;;;;;;21.05;11.88;;;13.40;90.30;;;;;;5023972;28;20045;-84
2022/08/06 06:41:15;;;;;;;22.45;12.25;;;12.80;89.30;;;;;;5037064;28;20049;-81
2022/08/06 06:44:12;;;;;;;19.83;12.23;;;12.70;89.10;;;;;;5021745;28;20061;-83
2022/08/06 06:47:37;;;;;;;;;;;;;;;;;;;;;
2022/08/06 06:50:36;;;;;;;25.23;12.38;;;13.00;88.90;;;;;;5037184;28;20041;-83
2022/08/06 06:53:44;;;;;;;21.90;12.15;;;13.10;88.60;;;;;;5036675;28;20046;-83
2022/08/06 06:56:36;;;;;;;23.27;13.18;;;13.10;88.90;;;;;;5035155;28;20041;-84
2022/08/06 06:59:29;;;;;;;22.08;13.27;;;13.20;88.60;;;;;;5036006;28;20046;-84
2022/08/06 07:02:34;;;;;;;;;;;;;;;;;;;;;
2022/08/06 07:05:58;;;;;;;23.50;13.38;;;13.30;88.10;;;;;;4995714;28;20065;-83
2022/08/06 07:11:38;;;;;;;25.33;12.70;;;13.50;87.60;;;;;;5112809;27;20357;-78
2022/08/06 07:14:28;;;;;;;23.73;12.63;;;13.60;88.20;;;;;;5076543;28;20375;-78
2022/08/06 07:17:05;;;;;;;22.65;12.55;;;13.70;87.90;;;;;;5074359;28;20051;-83
2022/08/06 07:19:56;;;;;;;23.27;12.93;;;13.80;87.70;;;;;;5074335;28;20044;-79
2022/08/06 07:22:29;;;;;;;19.00;12.35;;;13.80;87.30;;;;;;5073100;28;20387;-80
2022/08/06 07:25:05;;;;;;;22.58;12.68;;;13.90;87.30;;;;;;5091906;28;20056;-79
2022/08/06 07:27:38;;;;;;;21.98;12.93;;;13.90;87.20;;;;;;5090787;28;20052;-78
2022/08/06 07:30:23;;;;;;;23.20;13.13;;;14.00;87.00;;;;;;5091300;28;20045;-79
2022/08/06 07:32:55;;;;;;;23.50;12.85;;;14.10;87.00;;;;;;5091659;28;20048;-78
2022/08/06 07:35:25;;;;;;;20.52;12.13;;;14.20;86.70;;;;;;5056162;28;20072;-78
2022/08/06 07:38:06;;;;;;;21.90;12.38;;;14.20;86.50;;;;;;5073784;28;20048;-80
2022/08/06 07:40:42;;;;;;;20.90;12.35;;;14.30;86.20;;;;;;5073640;28;20063;-79
2022/08/06 07:43:31;;;;;;;20.15;12.40;;;14.30;86.20;;;;;;5091454;28;20067;-79
2022/08/06 07:46:05;;;;;;;17.67;11.43;;;14.40;86.00;;;;;;5074179;28;20051;-79
2022/08/06 07:48:47;;;;;;;24.35;12.18;;;14.30;85.70;;;;;;5090263;28;20055;-78
2022/08/06 07:52:58;;;;;;;;;;;;;;;;;;;;;
2022/08/06 08:00:26;;;;;;;22.25;11.45;;;14.50;85.30;;;;;;4934034;28;20452;-83
2022/08/06 08:06:17;;;;;;;16.08;10.57;;;13.70;84.00;;;;;;5029623;28;20068;-84
2022/08/06 08:08:57;;;;;;;20.52;11.40;;;14.80;84.40;;;;;;5014886;28;20038;-76
2022/08/06 08:11:25;;;;;;;19.42;11.18;;;14.90;83.80;;;;;;5049032;28;20061;-79
2022/08/06 08:14:26;;;;;;;20.58;10.93;;;14.90;84.00;;;;;;5067647;28;20036;-79
2022/08/06 08:17:09;;;;;;;19.48;10.43;;;14.90;83.80;;;;;;5052485;28;20060;-79
2022/08/06 08:19:38;;;;;;;20.55;10.38;;;15.00;83.80;;;;;;5068941;28;20049;-79
2022/08/06 08:22:10;;;;;;;;;;;15.00;83.30;;;;;;5043251;28;20045;-80
2022/08/06 08:24:44;;;;;;;18.95;10.60;;;15.70;83.10;;;;;;5055841;28;19927;-79
2022/08/06 09:14:10;;;;;;;13.80;7.28;;;16.60;76.70;;;;;;5112041;27;20358;-80
2022/08/06 09:17:24;;;;;;;13.48;7.75;;;16.70;77.40;;;;;;5080157;28;20371;-80
2022/08/06 09:20:13;;;;;;;12.93;8.02;;;16.10;76.60;;;;;;5084712;28;20053;-79
2022/08/06 09:22:52;;;;;;;17.55;8.68;;;16.30;77.30;;;;;;5074879;28;20055;-82
2022/08/06 09:26:07;;;;;;;16.80;7.90;;;17.40;76.60;;;;;;5074107;28;20501;-82
2022/08/06 09:28:42;;;;;;;22.25;8.30;;;15.90;76.20;;;;;;5091164;28;20459;-79
2022/08/06 09:31:26;;;;;;;14.63;8.18;;;18.00;75.60;;;;;;5091232;28;20040;-84
2022/08/06 09:34:39;;;;;;;13.40;7.50;;;17.30;76.60;;;;;;5035408;28;20211;-78
2022/08/06 09:37:47;;;;;;;11.52;6.53;;;17.30;74.50;;;;;;5091451;28;20056;-76
2022/08/06 09:41:11;;;;;;;13.38;6.50;;;17.40;72.30;;;;;;5091452;28;20036;-78
2022/08/06 09:43:52;;;;;;;8.98;5.85;;;17.40;70.30;;;;;;5091401;28;20056;-77
2022/08/06 09:55:58;;;;;;;12.90;6.15;;;17.70;68.50;;;;;;4932072;29;20122;-77
2022/08/06 09:58:35;;;;;;;11.55;6.57;;;17.80;71.50;;;;;;4935707;29;20043;-77
2022/08/06 10:01:15;;;;;;;10.23;6.22;;;17.80;70.50;;;;;;4992413;28;20046;-77
2022/08/06 10:03:54;;;;;;;12.40;6.22;;;17.90;69.80;;;;;;5009716;28;20076;-75
2022/08/06 10:06:51;;;;;;;11.40;6.45;;;18.00;69.40;;;;;;5009409;28;20381;-76
2022/08/06 10:14:33;;;;;;;10.48;5.68;;;18.20;64.90;;;;;;4970170;28;20046;-75
2022/08/06 10:17:08;;;;;;;9.60;5.70;;;17.80;67.40;;;;;;4976837;28;20062;-78
2022/08/06 10:19:44;;;;;;;8.40;5.18;;;18.30;66.80;;;;;;5009292;28;20050;-75
2022/08/06 10:22:20;;;;;;;10.10;5.83;;;18.60;66.70;;;;;;4993086;28;20042;-78
2022/08/06 10:24:56;;;;;;;8.82;5.15;;;18.50;65.70;;;;;;4981399;28;20292;-77
2022/08/06 10:27:36;;;;;;;9.63;5.68;;;18.60;65.50;;;;;;4979890;28;20482;-76
2022/08/06 10:30:10;;;;;;;8.85;4.45;;;18.90;65.30;;;;;;4995871;28;20386;-75
2022/08/06 10:32:51;;;;;;;7.30;4.80;;;21.20;66.00;;;;;;5038793;28;20044;-77
2022/08/06 10:35:22;;;;;;;8.82;5.22;;;19.10;64.30;;;;;;5075038;28;20048;-75
2022/08/06 10:37:59;;;;;;;8.40;4.40;;;19.20;63.80;;;;;;5076054;28;20047;-75
2022/08/06 10:40:30;;;;;;;;;;;19.40;63.50;;;;;;5077503;28;20041;-75
2022/08/06 10:43:03;;;;;;;8.57;5.28;;;19.50;62.20;;;;;;5074849;28;19935;-75
2022/08/06 10:45:34;;;;;;;12.63;5.30;;;19.60;63.10;;;;;;5075882;28;20045;-76
2022/08/06 10:48:16;;;;;;;11.05;5.07;;;19.70;63.40;;;;;;5075488;28;20051;-74
2022/08/06 10:51:07;;;;;;;14.00;5.75;;;19.90;63.60;;;;;;5076043;28;20040;-76
2022/08/06 10:53:37;;;;;;;9.70;5.25;;;19.90;62.70;;;;;;5076544;28;20052;-75
2022/08/06 10:56:26;;;;;;;11.95;5.25;;;19.90;61.90;;;;;;5075630;28;20094;-72
2022/08/06 10:59:12;;;;;;;13.43;4.70;;;19.90;62.40;;;;;;5075435;28;20048;-74
2022/08/06 11:01:51;;;;;;;7.93;4.75;;;20.00;62.30;;;;;;5057785;28;20055;-72
2022/08/06 11:04:50;;;;;;;8.35;4.40;;;20.00;62.30;;;;;;5075619;28;20055;-74
2022/08/06 11:07:58;;;;;;;8.85;4.45;;;20.00;60.70;;;;;;5075438;28;20048;-74
2022/08/06 11:11:10;;;;;;;8.75;4.85;;;20.00;60.80;;;;;;5076246;28;20452;-74
2022/08/06 11:14:02;;;;;;;7.40;4.72;;;20.10;60.00;;;;;;5073900;28;20048;-72
2022/08/06 11:16:31;;;;;;;6.57;3.80;;;20.10;60.70;;;;;;5075127;28;20044;-73
2022/08/06 11:19:11;;;;;;;7.63;4.00;;;20.20;60.60;;;;;;5075442;28;20486;-73
2022/08/06 11:21:43;;;;;;;7.53;4.30;;;20.20;59.20;;;;;;5074934;28;20059;-74
2022/08/06 11:24:30;;;;;;;8.82;4.53;;;20.20;59.50;;;;;;5075419;28;20360;-73
2022/08/06 11:27:24;;;;;;;9.32;4.60;;;20.30;59.00;;;;;;5059224;28;20386;-74
2022/08/06 11:30:10;;;;;;;10.82;5.35;;;20.30;58.10;;;;;;5075242;28;20045;-74
2022/08/06 11:32:50;;;;;;;8.27;4.90;;;19.50;58.00;;;;;;5075105;28;20376;-73
2022/08/06 11:35:33;;;;;;;9.73;5.03;;;20.30;58.50;;;;;;5073747;28;20048;-77
2022/08/06 11:38:11;;;;;;;10.38;4.60;;;20.30;58.10;;;;;;5074891;28;20043;-74
2022/08/06 11:41:22;;;;;;;6.57;4.47;;;20.30;59.30;;;;;;5074732;28;20459;-75
2022/08/06 11:44:10;;;;;;;7.97;4.57;;;19.50;58.00;;;;;;5071040;28;20048;-74
2022/08/06 11:46:45;;;;;;;10.88;4.47;;;20.50;58.70;;;;;;5074837;28;20455;-74
2022/08/06 11:49:24;;;;;;;8.45;4.80;;;20.50;58.60;;;;;;5074702;28;20053;-75
2022/08/06 11:51:59;;;;;;;11.88;4.63;;;20.60;58.70;;;;;;5075473;28;20052;-74
2022/08/06 11:55:00;;;;;;;7.07;4.68;;;20.70;58.90;;;;;;5074826;28;20045;-74
2022/08/06 11:57:28;;;;;;;8.57;4.90;;;20.80;58.00;;;;;;5075258;28;20049;-74
2022/08/06 12:00:16;;;;;;;8.68;5.10;;;21.00;58.80;;;;;;5075594;28;20044;-74
2022/08/06 12:02:50;;;;;;;10.93;5.00;;;21.10;58.10;;;;;;5074317;28;20051;-74
2022/08/06 12:05:20;;;;;;;7.38;4.10;;;21.10;57.80;;;;;;5075124;28;20049;-73
2022/08/06 12:08:14;;;;;;;7.25;4.22;;;21.20;57.90;;;;;;5074058;28;20056;-73
2022/08/06 12:11:27;;;;;;;11.65;4.90;;;21.20;57.20;;;;;;5073970;28;20044;-74
2022/08/06 12:13:55;;;;;;;8.25;4.72;;;21.30;57.40;;;;;;5074102;28;20044;-74
2022/08/06 12:16:43;;;;;;;12.82;4.50;;;21.30;58.00;;;;;;5075035;28;20036;-73
2022/08/06 12:19:21;;;;;;;7.88;4.20;;;21.50;57.60;;;;;;5074964;28;20379;-73
2022/08/06 12:21:55;;;;;;;14.95;4.80;;;21.60;57.50;;;;;;5073793;28;20052;-73
2022/08/06 12:24:26;;;;;;;16.02;5.15;;;21.60;57.20;;;;;;5074801;28;20063;-73
2022/08/06 12:27:15;;;;;;;7.68;4.60;;;21.70;56.60;;;;;;5072167;28;20036;-73
2022/08/06 12:29:43;;;;;;;7.15;4.60;;;21.70;56.40;;;;;;5053621;28;20052;-71
2022/08/06 12:32:21;;;;;;;9.65;4.60;;;21.80;56.60;;;;;;5054639;28;20056;-73
2022/08/06 12:34:53;;;;;;;9.80;4.28;;;21.80;55.80;;;;;;5053690;28;20106;-73
2022/08/06 12:37:46;;;;;;;8.60;4.70;;;21.90;56.40;;;;;;5054597;28;20051;-73
2022/08/06 12:40:29;;;;;;;8.75;4.55;;;21.90;54.60;;;;;;5054392;28;20045;-72
2022/08/06 12:43:03;;;;;;;7.82;4.40;;;22.00;55.60;;;;;;5053701;28;20071;-73
2022/08/06 12:45:42;;;;;;;8.10;4.00;;;22.10;55.40;;;;;;5054620;28;20467;-73
2022/08/06 12:48:31;;;;;;;8.02;4.32;;;22.20;55.30;;;;;;5052660;28;20503;-73
2022/08/06 12:51:05;;;;;;;7.00;4.05;;;22.40;55.10;;;;;;5054330;28;20399;-72
2022/08/06 12:53:49;;;;;;;11.35;4.18;;;22.40;55.10;;;;;;5054177;28;20095;-73
2022/08/06 12:56:22;;;;;;;;;;;22.60;54.90;;;;;;5053880;28;20048;-72
2022/08/06 12:59:01;;;;;;;9.75;4.50;;;22.80;53.20;;;;;;5054369;28;19921;-73
2022/08/06 13:01:32;;;;;;;7.38;3.85;;;22.90;54.30;;;;;;5053214;28;20037;-73
2022/08/06 13:04:21;;;;;;;6.38;3.95;;;23.00;54.20;;;;;;5054323;28;20041;-73
2022/08/06 13:07:00;;;;;;;11.48;4.50;;;23.00;53.50;;;;;;5054361;28;20456;-73
2022/08/06 13:09:30;;;;;;;10.10;4.63;;;23.10;53.30;;;;;;5052892;28;20055;-71
2022/08/06 13:12:20;;;;;;;6.25;4.00;;;23.20;53.20;;;;;;5053969;28;20060;-73
2022/08/06 13:15:15;;;;;;;7.05;4.15;;;23.20;51.90;;;;;;5052545;28;20049;-73
2022/08/06 13:18:11;;;;;;;11.93;3.90;;;23.30;51.40;;;;;;5054202;28;20056;-72
2022/08/06 13:21:01;;;;;;;8.13;4.00;;;23.30;51.30;;;;;;5053020;28;20052;-72
2022/08/06 13:23:32;;;;;;;6.20;3.90;;;23.40;52.20;;;;;;5053040;28;20045;-72
2022/08/06 13:26:17;;;;;;;8.70;4.22;;;23.50;51.60;;;;;;5054192;28;20045;-72
2022/08/06 13:29:20;;;;;;;9.63;4.00;;;23.50;50.70;;;;;;5052397;28;20056;-72
2022/08/06 13:32:09;;;;;;;11.88;3.92;;;23.60;50.00;;;;;;5053407;28;20451;-72
2022/08/06 13:34:54;;;;;;;7.47;3.72;;;23.60;50.80;;;;;;5052836;28;20049;-72
2022/08/06 13:37:42;;;;;;;8.52;3.42;;;23.60;51.00;;;;;;5052887;28;20060;-73
2022/08/06 13:40:40;;;;;;;6.88;3.60;;;23.70;49.60;;;;;;5053962;28;20045;-72
2022/08/06 13:43:16;;;;;;;5.88;3.40;;;23.90;49.80;;;;;;5052807;28;20052;-72
2022/08/06 13:46:05;;;;;;;7.20;3.65;;;24.20;50.50;;;;;;5053959;28;20049;-72
2022/08/06 13:48:41;;;;;;;9.98;3.85;;;24.60;50.10;;;;;;5052230;28;20492;-72
2022/08/06 13:51:14;;;;;;;14.05;3.80;;;25.00;49.70;;;;;;5053193;28;20064;-73
2022/08/06 13:53:55;;;;;;;6.60;3.22;;;25.60;48.40;;;;;;5053613;28;20053;-75
2022/08/06 13:56:26;;;;;;;6.32;3.00;;;26.30;48.10;;;;;;5052663;28;20375;-72
2022/08/06 13:58:58;;;;;;;7.05;3.13;;;27.20;47.50;;;;;;5054295;28;20045;-75
2022/08/06 14:01:29;;;;;;;5.28;3.00;;;28.00;46.60;;;;;;5055585;28;20041;-73
2022/08/06 14:04:14;;;;;;;5.35;3.58;;;28.80;46.40;;;;;;5057581;28;20060;-73
2022/08/06 14:06:46;;;;;;;8.77;3.53;;;29.60;45.50;;;;;;5057310;28;20044;-74
2022/08/06 14:09:19;;;;;;;5.13;3.03;;;30.20;45.10;;;;;;5056767;28;20045;-74
2022/08/06 14:11:51;;;;;;;5.25;3.30;;;30.80;44.40;;;;;;5056878;28;20064;-77
2022/08/06 14:14:33;;;;;;;6.57;3.40;;;30.80;43.70;;;;;;5055378;28;20055;-78
2022/08/06 14:17:04;;;;;;;5.35;3.17;;;30.60;41.50;;;;;;5056904;28;20053;-79
2022/08/06 14:19:35;;;;;;;6.13;3.13;;;29.80;44.40;;;;;;5057589;28;20384;-79
2022/08/06 14:22:23;;;;;;;8.13;3.97;;;28.10;44.00;;;;;;5056329;28;20124;-77
2022/08/06 14:24:57;;;;;;;8.65;3.45;;;30.10;44.40;;;;;;5056565;28;20065;-76
2022/08/06 14:27:30;;;;;;;6.72;3.47;;;30.90;44.50;;;;;;5058037;28;20053;-78
2022/08/06 14:30:32;;;;;;;6.22;3.13;;;31.30;42.60;;;;;;5056398;28;20053;-78
2022/08/06 14:33:09;;;;;;;6.88;3.15;;;32.80;42.90;;;;;;5057369;28;20048;-80
2022/08/06 14:35:53;;;;;;;11.40;3.45;;;31.90;41.50;;;;;;5038337;28;20048;-80
2022/08/06 14:38:30;;;;;;;8.60;3.35;;;33.60;41.50;;;;;;5057659;28;20084;-76
2022/08/06 14:48:15;;;;;;;6.18;3.42;;;34.30;40.70;;;;;;5057049;28;20049;-80
2022/08/06 14:51:56;;;;;;;8.15;3.55;;;34.80;38.80;;;;;;4960629;28;20055;-80
2022/08/06 14:54:59;;;;;;;8.23;3.63;;;35.50;39.10;;;;;;4975802;28;20051;-79
2022/08/06 14:58:20;;;;;;;6.78;3.83;;;35.60;41.00;;;;;;4976711;28;20062;-80
2022/08/06 15:01:19;;;;;;;7.03;3.70;;;35.60;38.10;;;;;;4956173;28;20057;-80
2022/08/06 15:03:53;;;;;;;6.93;3.67;;;35.60;39.10;;;;;;4976572;28;20088;-63
2022/08/06 15:06:20;;;;;;;;;;;35.70;38.20;;;;;;4976724;28;20058;-80
2022/08/06 15:08:56;;;;;;;7.47;3.65;;;35.90;36.30;;;;;;5013369;28;19931;-73
2022/08/06 15:11:38;;;;;;;6.60;3.75;;;36.20;38.00;;;;;;5056445;28;20057;-81
2022/08/06 15:14:31;;;;;;;6.60;3.70;;;36.80;37.80;;;;;;5053672;28;20419;-81
2022/08/06 15:17:06;;;;;;;7.32;3.78;;;35.40;37.10;;;;;;5056531;28;20380;-79
2022/08/06 15:19:59;;;;;;;5.40;3.53;;;35.50;38.30;;;;;;5056842;28;20048;-79
2022/08/06 15:22:39;;;;;;;5.85;3.85;;;35.30;37.50;;;;;;5055719;28;20060;-80
2022/08/06 15:25:45;;;;;;;7.30;3.03;;;35.30;36.90;;;;;;5054933;28;20052;-83
2022/08/06 15:29:34;;;;;;;6.22;3.22;;;35.20;38.40;;;;;;4959781;28;20094;-81
2022/08/06 15:32:04;;;;;;;5.88;3.50;;;35.60;38.60;;;;;;5054682;28;20365;-81
2022/08/06 15:35:19;;;;;;;5.55;3.42;;;35.80;37.80;;;;;;5053213;28;20387;-80
2022/08/06 15:38:43;;;;;;;5.82;3.45;;;36.10;36.90;;;;;;5056529;28;20045;-81
2022/08/06 15:41:30;;;;;;;7.53;2.85;;;35.40;36.60;;;;;;5055252;28;20048;-82
2022/08/06 15:44:18;;;;;;;7.82;3.47;;;35.80;36.80;;;;;;5055250;28;20052;-78
2022/08/06 15:46:54;;;;;;;4.75;2.78;;;36.40;36.90;;;;;;5056423;28;20048;-79
2022/08/06 15:49:29;;;;;;;5.45;2.95;;;35.20;36.30;;;;;;5055167;28;20049;-80
2022/08/06 15:52:22;;;;;;;6.07;3.15;;;35.10;36.90;;;;;;5054814;28;20052;-79
2022/08/06 15:54:52;;;;;;;7.05;3.13;;;34.70;36.70;;;;;;5055161;28;20037;-80
2022/08/06 15:57:22;;;;;;;6.85;3.45;;;35.30;37.10;;;;;;5055735;28;20048;-80
2022/08/06 16:00:10;;;;;;;6.93;3.05;;;35.40;36.60;;;;;;5055076;28;20041;-82
2022/08/06 16:02:50;;;;;;;6.25;3.13;;;35.60;36.30;;;;;;5053358;28;20049;-78
2022/08/06 16:05:43;;;;;;;5.82;2.83;;;35.30;36.20;;;;;;5055294;28;20053;-77
2022/08/06 16:08:32;;;;;;;5.80;2.67;;;35.10;37.00;;;;;;5054661;28;20045;-77
2022/08/06 16:11:11;;;;;;;4.90;2.85;;;34.80;35.70;;;;;;5055052;28;20045;-79
2022/08/06 16:13:46;;;;;;;7.30;3.42;;;34.60;36.10;;;;;;5038748;28;20368;-79
2022/08/06 16:16:22;;;;;;;5.47;3.22;;;34.00;36.40;;;;;;5021780;28;20045;-79
2022/08/06 16:19:00;;;;;;;7.10;3.90;;;33.40;36.60;;;;;;5055371;28;20041;-78